Newburgh, Indiana
Current Conditions -  °F | °C
As of 3:54 PM on Friday 28 Nov 2014 (Local Time) from KEVV Reporting Station
Clear Clear  
Wind Chill: 39°   Ceiling: Unl
Heat Index: 44°   Visibility: 10mi
Dew Point: 26°   Wind: 10mph
Humidity: 49%   Direction: 170°S
Pressure: 30.12"   Gusts: NA
Location:  37.95°N, 87.4°W
Report Text: KEVV 282154Z 17009KT 10SM CLR 07/M03 A3012 RMK AO2 SLP204 T00671033
Loading
Personal Weather Stations






























Interactive Weather Map New forecast layout! Learn more

10-Day Weather Forecast

Advertisements
Track Severe Weather on mobile